Kearns, Utah
Current Conditions -  °F | °C
As of 6:53 PM on Monday 24 Nov 2014 (Local Time) from KSLC Reporting Station
Few Clouds Few Clouds  
Wind Chill:   Ceiling: Unl
Heat Index:   Visibility: 10mi
Dew Point: -7°   Wind: 3mph
Humidity: 54%   Direction: 190°S
Pressure: 30.43"   Gusts: NA
Location:  40.65°N, 111.96°W
Report Text: KSLC 250153Z 19003KT 10SM FEW060 02/M07 A3043 RMK AO2 SLP305 T00171067
Loading
Personal Weather Stations






























Interactive Weather Map New forecast layout! Learn more

10-Day Weather Forecast

Advertisements
Track Severe Weather on mobile